createdAt,value
2019-05-30T00:01:46.043Z,101388.42
2019-05-30T00:06:52.181Z,101392.17
2019-05-30T00:11:58.574Z,101396.94
2019-05-30T00:17:05.196Z,101385.42
2019-05-30T00:22:11.457Z,101392.55
2019-05-30T00:27:17.234Z,101394.39
2019-05-30T00:32:23.301Z,101389.25
2019-05-30T00:37:30.800Z,101386.17
2019-05-30T00:42:36.775Z,101390.09
2019-05-30T00:47:43.152Z,101387.53
2019-05-30T00:52:49.028Z,101388.38
2019-05-30T00:57:54.982Z,101389.34
2019-05-30T01:03:02.834Z,101388.94
2019-05-30T01:08:07.630Z,101386.59
2019-05-30T01:13:13.522Z,101389.90
2019-05-30T01:18:19.389Z,101392.52
2019-05-30T01:23:25.256Z,101389.50
2019-05-30T01:28:31.112Z,101395.95
2019-05-30T01:33:36.992Z,101388.57
2019-05-30T01:38:42.970Z,101390.16
2019-05-30T01:43:48.824Z,101392.38
2019-05-30T01:48:54.635Z,101397.02
2019-05-30T01:54:00.984Z,101399.70
2019-05-30T01:59:06.951Z,101405.54
2019-05-30T02:04:12.927Z,101405.33
2019-05-30T02:09:19.001Z,101406.86
2019-05-30T02:14:25.075Z,101404.77
2019-05-30T02:19:30.937Z,101399.85
2019-05-30T02:24:37.471Z,101400.38
2019-05-30T02:29:43.397Z,101397.77
2019-05-30T02:34:49.369Z,101397.55
2019-05-30T02:40:00.067Z,101401.70
2019-05-30T02:45:03.724Z,101405.97
2019-05-30T02:50:11.578Z,101403.84
2019-05-30T02:55:17.445Z,101408.45
2019-05-30T03:00:36.425Z,101407.08
2019-05-30T03:05:43.318Z,101415.51
2019-05-30T03:10:49.211Z,101426.70
2019-05-30T03:15:55.477Z,101429.19
2019-05-30T03:21:03.157Z,101426.37
2019-05-30T03:26:10.763Z,101432.27
2019-05-30T03:31:28.054Z,101428.83
2019-05-30T03:36:30.602Z,101425.31
2019-05-30T03:41:32.993Z,101427.50
2019-05-30T03:46:52.282Z,101441.78
2019-05-30T03:52:00.301Z,101453.11
2019-05-30T03:57:11.405Z,101451.05
2019-05-30T04:02:22.906Z,101456.55
2019-05-30T04:07:31.216Z,101460.95
2019-05-30T04:13:09.900Z,101462.10
2019-05-30T04:18:16.657Z,101459.52
2019-05-30T04:23:23.805Z,101478.45
2019-05-30T04:28:29.842Z,101482.50
2019-05-30T04:33:36.030Z,101486.52
2019-05-30T04:38:42.397Z,101492.09
2019-05-30T04:43:48.461Z,101485.14
2019-05-30T04:48:55.546Z,101489.76
2019-05-30T04:54:01.512Z,101489.13
2019-05-30T04:59:07.700Z,101504.09
2019-05-30T05:04:15.373Z,101511.85
2019-05-30T05:09:22.403Z,101507.36
2019-05-30T05:14:28.604Z,101513.92
2019-05-30T05:19:35.682Z,101523.72
2019-05-30T05:24:41.686Z,101530.79
2019-05-30T05:29:48.125Z,101527.58
2019-05-30T05:34:54.571Z,101535.13
2019-05-30T05:40:00.682Z,101535.53
2019-05-30T05:45:10.555Z,101536.56
2019-05-30T05:50:16.903Z,101534.98
2019-05-30T05:55:23.000Z,101538.20
2019-05-30T06:00:29.545Z,101546.80
2019-05-30T06:05:36.069Z,101548.05
2019-05-30T06:10:42.607Z,101545.80
2019-05-30T06:15:49.071Z,101551.86
2019-05-30T06:20:55.486Z,101543.19
2019-05-30T06:26:03.131Z,101548.01
2019-05-30T06:31:09.978Z,101545.38
2019-05-30T06:36:16.112Z,101546.90
2019-05-30T06:41:22.167Z,101544.53
2019-05-30T06:46:28.466Z,101543.14
2019-05-30T06:51:34.728Z,101545.19
2019-05-30T06:56:44.586Z,101547.10
2019-05-30T07:01:51.839Z,101543.74
2019-05-30T07:06:57.018Z,101541.77
2019-05-30T07:12:03.302Z,101546.31
2019-05-30T07:17:09.910Z,101542.87
2019-05-30T07:22:16.241Z,101535.52
2019-05-30T07:27:23.718Z,101533.41
2019-05-30T07:32:30.056Z,101529.75
2019-05-30T07:37:36.405Z,101530.07
2019-05-30T07:42:42.479Z,101526.32
2019-05-30T07:47:48.552Z,101525.11
2019-05-30T07:52:54.566Z,101524.46
2019-05-30T07:58:01.067Z,101529.22
2019-05-30T08:03:07.317Z,101520.97
2019-05-30T08:08:13.301Z,101528.50
2019-05-30T08:13:19.308Z,101519.41
2019-05-30T08:18:25.439Z,101512.25
2019-05-30T08:23:32.070Z,101514.64
2019-05-30T08:28:42.347Z,101510.38
2019-05-30T08:33:47.550Z,101508.12
2019-05-30T08:38:53.735Z,101494.78
2019-05-30T08:44:00.017Z,101506.70
2019-05-30T08:49:06.794Z,101498.27
2019-05-30T08:54:13.947Z,101499.34
2019-05-30T08:59:21.085Z,101490.02
2019-05-30T09:04:27.174Z,101498.25
2019-05-30T09:09:33.144Z,101497.23
2019-05-30T09:14:39.649Z,101491.98
2019-05-30T09:19:47.486Z,101488.14
2019-05-30T09:24:53.819Z,101485.66
2019-05-30T09:29:59.886Z,101481.96
2019-05-30T09:35:08.931Z,101476.94
2019-05-30T09:40:16.486Z,101482.41
2019-05-30T09:45:23.248Z,101478.93
2019-05-30T09:50:29.503Z,101472.92
2019-05-30T09:55:36.184Z,101471.58
2019-05-30T10:00:43.476Z,101476.89
2019-05-30T10:05:50.597Z,101472.00
2019-05-30T10:10:57.109Z,101464.84
2019-05-30T10:16:03.457Z,101459.53
2019-05-30T10:21:09.534Z,101466.91
2019-05-30T10:26:15.938Z,101461.85
2019-05-30T10:31:22.081Z,101463.27
2019-05-30T10:36:43.182Z,101461.42
2019-05-30T10:41:35.436Z,101450.00
2019-05-30T10:46:41.359Z,101448.78
2019-05-30T10:51:47.849Z,101439.88
2019-05-30T10:56:53.883Z,101444.79
2019-05-30T11:01:59.860Z,101435.36
2019-05-30T11:07:12.013Z,101437.37
2019-05-30T11:12:18.360Z,101431.36
2019-05-30T11:17:24.522Z,101428.23
2019-05-30T11:22:30.612Z,101421.48
2019-05-30T11:27:36.894Z,101420.41
2019-05-30T11:32:43.190Z,101415.52
2019-05-30T11:37:49.229Z,101403.38
2019-05-30T11:42:55.522Z,101409.50
2019-05-30T11:48:01.641Z,101407.11
2019-05-30T11:53:08.212Z,101409.89
2019-05-30T11:58:19.004Z,101400.87
2019-05-30T12:03:22.358Z,101401.98
2019-05-30T12:08:28.352Z,101403.69
2019-05-30T12:13:34.568Z,101393.63
2019-05-30T12:18:40.682Z,101392.66
2019-05-30T12:23:46.855Z,101373.56
2019-05-30T12:28:54.128Z,101376.91
2019-05-30T12:34:02.526Z,101369.81
2019-05-30T12:39:09.172Z,101377.56
2019-05-30T12:44:15.552Z,101378.63
2019-05-30T12:49:21.520Z,101378.78
2019-05-30T12:54:28.518Z,101377.10
2019-05-30T12:59:34.584Z,101381.16
2019-05-30T13:04:40.648Z,101363.39
2019-05-30T13:09:46.643Z,101361.25
2019-05-30T13:14:53.017Z,101357.88
2019-05-30T13:19:59.136Z,101360.45
2019-05-30T13:25:08.352Z,101348.28
2019-05-30T13:30:15.330Z,101349.84
2019-05-30T13:35:21.838Z,101337.53
2019-05-30T13:40:27.750Z,101334.73
2019-05-30T13:45:34.015Z,101337.23
2019-05-30T13:50:40.026Z,101338.31
2019-05-30T13:55:46.152Z,101331.91
2019-05-30T14:00:52.798Z,101329.41
2019-05-30T14:05:59.946Z,101332.73
2019-05-30T14:11:06.733Z,101314.21
2019-05-30T14:16:12.868Z,101318.86
2019-05-30T14:21:18.985Z,101322.28
2019-05-30T14:26:25.074Z,101320.23
2019-05-30T14:31:31.215Z,101310.09
2019-05-30T14:36:37.561Z,101316.53
2019-05-30T14:41:43.542Z,101306.94
2019-05-30T14:46:49.674Z,101299.46
2019-05-30T14:51:55.676Z,101297.65
2019-05-30T14:57:03.164Z,101294.31
2019-05-30T15:02:09.255Z,101288.58
2019-05-30T15:07:15.621Z,101289.77
2019-05-30T15:12:21.709Z,101297.51
2019-05-30T15:17:27.686Z,101293.66
2019-05-30T15:22:33.650Z,101295.09
2019-05-30T15:27:39.627Z,101288.89
2019-05-30T15:32:45.589Z,101292.24
2019-05-30T15:37:51.462Z,101285.13
2019-05-30T15:42:57.325Z,101275.33
2019-05-30T15:48:03.295Z,101280.49
2019-05-30T15:53:10.911Z,101271.91
2019-05-30T15:58:18.033Z,101268.95
2019-05-30T16:03:23.970Z,101261.23
2019-05-30T16:08:29.805Z,101263.89
2019-05-30T16:13:35.817Z,101262.62
2019-05-30T16:18:42.095Z,101253.90
2019-05-30T16:23:49.839Z,101256.97
2019-05-30T16:28:55.881Z,101253.34
2019-05-30T16:34:10.216Z,101225.72
2019-05-30T16:39:16.221Z,101251.89
2019-05-30T16:44:23.928Z,101236.38
2019-05-30T16:49:29.996Z,101234.53
2019-05-30T16:54:35.871Z,101228.45
2019-05-30T16:59:41.834Z,101231.81
2019-05-30T17:04:47.706Z,101232.72
2019-05-30T17:09:53.697Z,101229.19
2019-05-30T17:14:59.633Z,101222.88
2019-05-30T17:20:08.900Z,101227.81
2019-05-30T17:25:14.973Z,101230.45
2019-05-30T17:30:23.738Z,101221.03
2019-05-30T17:35:29.729Z,101226.69
2019-05-30T17:40:44.674Z,101225.24
2019-05-30T17:45:43.259Z,101218.61
2019-05-30T17:50:49.122Z,101222.65
2019-05-30T17:55:54.990Z,101216.28
2019-05-30T18:01:00.967Z,101222.45
2019-05-30T18:06:07.065Z,101223.30
2019-05-30T18:11:13.112Z,101226.16
2019-05-30T18:16:19.084Z,101228.63
2019-05-30T18:21:25.398Z,101238.01
2019-05-30T18:26:31.899Z,101238.38
2019-05-30T18:31:38.129Z,101232.86
2019-05-30T18:36:44.197Z,101235.05
2019-05-30T18:41:52.382Z,101234.47
2019-05-30T18:47:00.250Z,101232.40
2019-05-30T18:52:06.405Z,101230.23
2019-05-30T18:57:12.489Z,101233.55
2019-05-30T19:02:21.628Z,101234.52
2019-05-30T19:07:30.916Z,101245.48
2019-05-30T19:12:37.053Z,101252.39
2019-05-30T19:17:43.027Z,101247.82
2019-05-30T19:22:49.546Z,101249.00
2019-05-30T19:27:55.509Z,101243.83
2019-05-30T19:33:01.665Z,101242.45
2019-05-30T19:38:07.617Z,101246.52
2019-05-30T19:43:13.595Z,101242.91
2019-05-30T19:48:19.465Z,101244.31
2019-05-30T19:53:25.531Z,101250.94
2019-05-30T19:58:31.593Z,101241.80
2019-05-30T20:03:46.280Z,101247.95
2019-05-30T20:08:55.062Z,101248.72
2019-05-30T20:13:53.311Z,101247.41
2019-05-30T20:18:59.281Z,101245.22
2019-05-30T20:24:05.561Z,101239.22
2019-05-30T20:29:11.482Z,101235.05
2019-05-30T20:34:18.045Z,101230.53
2019-05-30T20:39:24.394Z,101233.20
2019-05-30T20:44:30.469Z,101236.79
2019-05-30T20:49:37.114Z,101237.92
2019-05-30T20:54:43.520Z,101234.95
2019-05-30T20:59:49.722Z,101234.39
2019-05-30T21:04:55.778Z,101247.07
2019-05-30T21:10:04.008Z,101238.62
2019-05-30T21:15:10.389Z,101232.05
2019-05-30T21:20:17.274Z,101234.16
2019-05-30T21:25:23.333Z,101228.66
2019-05-30T21:30:29.323Z,101225.02
2019-05-30T21:35:35.196Z,101231.78
2019-05-30T21:40:42.464Z,101228.66
2019-05-30T21:45:48.996Z,101224.63
2019-05-30T21:50:55.034Z,101224.06
2019-05-30T21:56:00.919Z,101220.11
2019-05-30T22:01:23.480Z,101221.15
2019-05-30T22:06:29.679Z,101222.12
2019-05-30T22:11:35.727Z,101223.63
2019-05-30T22:16:41.878Z,101222.95
2019-05-30T22:21:48.134Z,101231.27
2019-05-30T22:26:54.668Z,101228.73
2019-05-30T22:32:00.531Z,101218.13
2019-05-30T22:37:06.506Z,101224.48
2019-05-30T22:42:12.368Z,101218.88
2019-05-30T22:47:18.241Z,101210.05
2019-05-30T22:52:24.208Z,101212.48
2019-05-30T22:57:30.177Z,101214.82
2019-05-30T23:02:36.157Z,101208.71
2019-05-30T23:07:42.024Z,101208.69
2019-05-30T23:12:47.885Z,101195.84
2019-05-30T23:17:54.785Z,101195.48
2019-05-30T23:23:00.962Z,101193.11
2019-05-30T23:28:07.031Z,101191.68
2019-05-30T23:33:17.689Z,101189.16
2019-05-30T23:38:23.589Z,101190.52
2019-05-30T23:43:30.681Z,101182.02
2019-05-30T23:48:36.549Z,101184.86
2019-05-30T23:53:42.422Z,101193.35
2019-05-30T23:58:48.384Z,101187.42
